sensor_id;sensor_type;location;lat;lon;timestamp;pressure;altitude;pressure_sealevel;temperature;humidity
18985;BME280;9626;52.552;13.436;2022-08-06T00:02:03;101444.50;;;16.91;94.31
18985;BME280;9626;52.552;13.436;2022-08-06T00:04:29;101451.09;;;16.79;95.36
18985;BME280;9626;52.552;13.436;2022-08-06T00:06:54;101463.72;;;16.74;94.84
18985;BME280;9626;52.552;13.436;2022-08-06T00:09:20;101472.59;;;16.76;93.50
18985;BME280;9626;52.552;13.436;2022-08-06T00:11:46;101477.50;;;16.62;94.96
18985;BME280;9626;52.552;13.436;2022-08-06T00:14:12;101487.41;;;16.60;95.95
18985;BME280;9626;52.552;13.436;2022-08-06T00:16:37;101487.19;;;16.66;94.55
18985;BME280;9626;52.552;13.436;2022-08-06T00:19:03;101494.56;;;16.58;95.61
18985;BME280;9626;52.552;13.436;2022-08-06T00:21:29;101500.03;;;16.54;94.44
18985;BME280;9626;52.552;13.436;2022-08-06T00:23:54;101504.09;;;16.38;94.83
18985;BME280;9626;52.552;13.436;2022-08-06T00:26:23;101508.34;;;16.15;96.34
18985;BME280;9626;52.552;13.436;2022-08-06T00:28:52;101510.03;;;15.88;99.06
18985;BME280;9626;52.552;13.436;2022-08-06T00:31:17;101509.75;;;15.66;100.00
18985;BME280;9626;52.552;13.436;2022-08-06T00:33:43;101503.91;;;15.51;100.00
18985;BME280;9626;52.552;13.436;2022-08-06T00:36:09;101508.22;;;15.57;100.00
18985;BME280;9626;52.552;13.436;2022-08-06T00:38:35;101508.56;;;15.43;100.00
18985;BME280;9626;52.552;13.436;2022-08-06T00:41:02;101501.59;;;15.37;100.00
18985;BME280;9626;52.552;13.436;2022-08-06T00:43:28;101509.84;;;15.28;100.00
18985;BME280;9626;52.552;13.436;2022-08-06T00:45:53;101503.75;;;15.25;100.00
18985;BME280;9626;52.552;13.436;2022-08-06T00:48:19;101506.28;;;15.29;100.00
18985;BME280;9626;52.552;13.436;2022-08-06T00:50:45;101516.31;;;15.19;100.00
18985;BME280;9626;52.552;13.436;2022-08-06T00:53:10;101509.69;;;15.34;100.00
18985;BME280;9626;52.552;13.436;2022-08-06T00:55:36;101508.25;;;15.21;100.00
18985;BME280;9626;52.552;13.436;2022-08-06T00:58:06;101517.16;;;15.21;100.00
18985;BME280;9626;52.552;13.436;2022-08-06T01:00:34;101508.75;;;15.37;100.00
18985;BME280;9626;52.552;13.436;2022-08-06T01:03:00;101519.84;;;15.54;99.14
18985;BME280;9626;52.552;13.436;2022-08-06T01:05:26;101530.69;;;15.48;100.00
18985;BME280;9626;52.552;13.436;2022-08-06T01:07:51;101529.06;;;15.43;100.00
18985;BME280;9626;52.552;13.436;2022-08-06T01:10:17;101530.84;;;15.42;99.07
18985;BME280;9626;52.552;13.436;2022-08-06T01:12:42;101534.03;;;15.22;100.00
18985;BME280;9626;52.552;13.436;2022-08-06T01:15:08;101536.78;;;15.19;100.00
18985;BME280;9626;52.552;13.436;2022-08-06T01:17:38;101534.84;;;15.24;99.78
18985;BME280;9626;52.552;13.436;2022-08-06T01:20:34;101542.19;;;15.50;98.81
18985;BME280;9626;52.552;13.436;2022-08-06T01:23:28;101541.78;;;15.66;96.79
18985;BME280;9626;52.552;13.436;2022-08-06T01:28:49;101543.25;;;15.43;95.76
18985;BME280;9626;52.552;13.436;2022-08-06T01:31:23;101534.34;;;15.10;97.55
18985;BME280;9626;52.552;13.436;2022-08-06T01:33:56;101543.84;;;15.20;97.85
18985;BME280;9626;52.552;13.436;2022-08-06T01:36:31;101543.91;;;15.53;95.59
18985;BME280;9626;52.552;13.436;2022-08-06T01:38:59;101545.97;;;15.07;97.36
18985;BME280;9626;52.552;13.436;2022-08-06T01:41:30;101540.69;;;15.06;98.36
18985;BME280;9626;52.552;13.436;2022-08-06T01:44:08;101545.97;;;15.07;97.83
18985;BME280;9626;52.552;13.436;2022-08-06T01:46:44;101558.59;;;15.35;97.03
18985;BME280;9626;52.552;13.436;2022-08-06T01:49:11;101540.75;;;15.37;95.44
18985;BME280;9626;52.552;13.436;2022-08-06T01:51:39;101541.63;;;15.37;95.34
18985;BME280;9626;52.552;13.436;2022-08-06T01:54:08;101546.41;;;15.59;93.78
18985;BME280;9626;52.552;13.436;2022-08-06T01:56:39;101541.94;;;15.60;93.37
18985;BME280;9626;52.552;13.436;2022-08-06T01:59:06;101541.69;;;15.36;94.39
18985;BME280;9626;52.552;13.436;2022-08-06T02:01:34;101538.69;;;15.48;94.81
18985;BME280;9626;52.552;13.436;2022-08-06T02:04:01;101541.91;;;15.61;93.91
18985;BME280;9626;52.552;13.436;2022-08-06T02:06:33;101546.28;;;15.29;94.38
18985;BME280;9626;52.552;13.436;2022-08-06T02:09:12;101552.44;;;14.97;97.31
18985;BME280;9626;52.552;13.436;2022-08-06T02:11:39;101545.38;;;14.96;97.56
18985;BME280;9626;52.552;13.436;2022-08-06T02:14:07;101551.13;;;14.77;99.52
18985;BME280;9626;52.552;13.436;2022-08-06T02:16:37;101550.69;;;14.96;98.59
18985;BME280;9626;52.552;13.436;2022-08-06T02:19:22;101553.66;;;14.82;100.00
18985;BME280;9626;52.552;13.436;2022-08-06T02:21:50;101542.53;;;15.02;98.81
18985;BME280;9626;52.552;13.436;2022-08-06T02:24:17;101547.09;;;14.97;98.63
18985;BME280;9626;52.552;13.436;2022-08-06T02:26:44;101544.00;;;14.78;100.00
18985;BME280;9626;52.552;13.436;2022-08-06T02:29:14;101556.66;;;14.68;100.00
18985;BME280;9626;52.552;13.436;2022-08-06T02:31:43;101558.94;;;14.44;100.00
18985;BME280;9626;52.552;13.436;2022-08-06T02:34:09;101559.75;;;14.48;100.00
18985;BME280;9626;52.552;13.436;2022-08-06T02:36:50;101558.78;;;14.50;100.00
18985;BME280;9626;52.552;13.436;2022-08-06T02:39:30;101565.28;;;14.39;100.00
18985;BME280;9626;52.552;13.436;2022-08-06T02:42:12;101569.34;;;14.57;100.00
18985;BME280;9626;52.552;13.436;2022-08-06T02:47:37;101580.72;;;14.23;100.00
18985;BME280;9626;52.552;13.436;2022-08-06T02:50:05;101584.34;;;14.18;100.00
18985;BME280;9626;52.552;13.436;2022-08-06T02:52:40;101591.72;;;14.04;100.00
18985;BME280;9626;52.552;13.436;2022-08-06T02:55:29;101598.75;;;14.08;100.00
18985;BME280;9626;52.552;13.436;2022-08-06T02:57:57;101597.25;;;13.95;100.00
18985;BME280;9626;52.552;13.436;2022-08-06T03:00:25;101605.94;;;14.05;100.00
18985;BME280;9626;52.552;13.436;2022-08-06T03:02:57;101605.00;;;14.07;100.00
18985;BME280;9626;52.552;13.436;2022-08-06T03:05:25;101598.75;;;14.08;100.00
18985;BME280;9626;52.552;13.436;2022-08-06T03:07:52;101594.19;;;14.15;100.00
18985;BME280;9626;52.552;13.436;2022-08-06T03:10:22;101603.16;;;14.09;100.00
18985;BME280;9626;52.552;13.436;2022-08-06T03:12:49;101604.22;;;14.02;100.00
18985;BME280;9626;52.552;13.436;2022-08-06T03:15:18;101615.09;;;13.90;100.00
18985;BME280;9626;52.552;13.436;2022-08-06T03:17:45;101614.63;;;13.67;100.00
18985;BME280;9626;52.552;13.436;2022-08-06T03:20:14;101612.97;;;13.59;100.00
18985;BME280;9626;52.552;13.436;2022-08-06T03:22:40;101618.63;;;13.39;100.00
18985;BME280;9626;52.552;13.436;2022-08-06T03:25:08;101622.22;;;13.36;100.00
18985;BME280;9626;52.552;13.436;2022-08-06T03:27:38;101634.56;;;13.40;100.00
18985;BME280;9626;52.552;13.436;2022-08-06T03:30:05;101640.72;;;13.44;100.00
18985;BME280;9626;52.552;13.436;2022-08-06T03:32:31;101643.53;;;13.33;100.00
18985;BME280;9626;52.552;13.436;2022-08-06T03:34:57;101642.63;;;13.34;100.00
18985;BME280;9626;52.552;13.436;2022-08-06T03:37:24;101649.53;;;13.49;100.00
18985;BME280;9626;52.552;13.436;2022-08-06T03:39:50;101649.66;;;13.40;100.00
18985;BME280;9626;52.552;13.436;2022-08-06T03:42:17;101651.50;;;13.33;100.00
18985;BME280;9626;52.552;13.436;2022-08-06T03:44:43;101654.13;;;13.39;100.00
18985;BME280;9626;52.552;13.436;2022-08-06T03:47:13;101667.25;;;13.50;100.00
18985;BME280;9626;52.552;13.436;2022-08-06T03:49:51;101670.53;;;13.64;100.00
18985;BME280;9626;52.552;13.436;2022-08-06T03:52:21;101673.91;;;13.76;100.00
18985;BME280;9626;52.552;13.436;2022-08-06T03:54:51;101681.00;;;13.75;100.00
18985;BME280;9626;52.552;13.436;2022-08-06T03:57:20;101673.53;;;13.96;100.00
18985;BME280;9626;52.552;13.436;2022-08-06T03:59:50;101676.13;;;14.00;100.00
18985;BME280;9626;52.552;13.436;2022-08-06T04:02:18;101683.56;;;13.81;100.00
18985;BME280;9626;52.552;13.436;2022-08-06T04:04:44;101689.75;;;13.82;100.00
18985;BME280;9626;52.552;13.436;2022-08-06T04:07:15;101691.88;;;13.61;100.00
18985;BME280;9626;52.552;13.436;2022-08-06T04:09:42;101684.16;;;13.46;100.00
18985;BME280;9626;52.552;13.436;2022-08-06T04:12:08;101690.44;;;13.40;100.00
18985;BME280;9626;52.552;13.436;2022-08-06T04:14:35;101689.69;;;13.29;100.00
18985;BME280;9626;52.552;13.436;2022-08-06T04:17:02;101692.28;;;13.35;100.00
18985;BME280;9626;52.552;13.436;2022-08-06T04:19:29;101695.13;;;13.80;100.00
18985;BME280;9626;52.552;13.436;2022-08-06T04:21:56;101703.25;;;13.71;100.00
18985;BME280;9626;52.552;13.436;2022-08-06T04:24:21;101704.50;;;13.47;100.00
18985;BME280;9626;52.552;13.436;2022-08-06T04:26:49;101701.38;;;13.18;100.00
18985;BME280;9626;52.552;13.436;2022-08-06T04:29:18;101703.34;;;13.04;100.00
18985;BME280;9626;52.552;13.436;2022-08-06T04:31:46;101711.09;;;13.21;100.00
18985;BME280;9626;52.552;13.436;2022-08-06T04:34:18;101715.31;;;13.36;100.00
18985;BME280;9626;52.552;13.436;2022-08-06T04:36:45;101720.66;;;13.33;100.00
18985;BME280;9626;52.552;13.436;2022-08-06T04:39:11;101725.09;;;13.35;100.00
18985;BME280;9626;52.552;13.436;2022-08-06T04:41:36;101733.03;;;13.37;100.00
18985;BME280;9626;52.552;13.436;2022-08-06T04:44:02;101728.72;;;13.28;100.00
18985;BME280;9626;52.552;13.436;2022-08-06T04:46:29;101727.75;;;13.34;100.00
18985;BME280;9626;52.552;13.436;2022-08-06T04:48:55;101734.84;;;13.35;100.00
18985;BME280;9626;52.552;13.436;2022-08-06T04:51:22;101740.19;;;13.32;100.00
18985;BME280;9626;52.552;13.436;2022-08-06T04:53:48;101746.38;;;13.34;100.00
18985;BME280;9626;52.552;13.436;2022-08-06T04:56:14;101746.38;;;13.32;100.00
18985;BME280;9626;52.552;13.436;2022-08-06T04:58:39;101753.63;;;13.23;100.00
18985;BME280;9626;52.552;13.436;2022-08-06T05:01:05;101757.75;;;13.45;100.00
18985;BME280;9626;52.552;13.436;2022-08-06T05:03:31;101756.03;;;13.44;100.00
18985;BME280;9626;52.552;13.436;2022-08-06T05:08:30;101760.06;;;13.68;100.00
18985;BME280;9626;52.552;13.436;2022-08-06T05:11:01;101756.91;;;13.43;100.00
18985;BME280;9626;52.552;13.436;2022-08-06T05:13:36;101775.34;;;13.56;100.00
18985;BME280;9626;52.552;13.436;2022-08-06T05:16:06;101776.34;;;13.47;100.00
18985;BME280;9626;52.552;13.436;2022-08-06T05:18:37;101773.81;;;13.39;100.00
18985;BME280;9626;52.552;13.436;2022-08-06T05:21:04;101786.19;;;13.42;100.00
18985;BME280;9626;52.552;13.436;2022-08-06T05:23:48;101793.25;;;13.46;100.00
18985;BME280;9626;52.552;13.436;2022-08-06T05:26:14;101790.94;;;13.15;100.00
18985;BME280;9626;52.552;13.436;2022-08-06T05:28:41;101801.59;;;13.15;100.00
18985;BME280;9626;52.552;13.436;2022-08-06T05:31:07;101805.78;;;13.33;100.00
18985;BME280;9626;52.552;13.436;2022-08-06T05:33:34;101805.72;;;13.41;100.00
18985;BME280;9626;52.552;13.436;2022-08-06T05:36:06;101811.88;;;13.43;100.00
18985;BME280;9626;52.552;13.436;2022-08-06T05:38:34;101817.22;;;13.41;100.00
18985;BME280;9626;52.552;13.436;2022-08-06T05:41:00;101819.09;;;13.31;100.00
18985;BME280;9626;52.552;13.436;2022-08-06T05:43:26;101813.00;;;13.23;100.00
18985;BME280;9626;52.552;13.436;2022-08-06T05:45:56;101811.84;;;13.47;100.00
18985;BME280;9626;52.552;13.436;2022-08-06T05:48:23;101815.28;;;13.54;100.00
18985;BME280;9626;52.552;13.436;2022-08-06T05:50:56;101819.69;;;13.57;100.00
18985;BME280;9626;52.552;13.436;2022-08-06T05:53:27;101829.97;;;13.81;100.00
18985;BME280;9626;52.552;13.436;2022-08-06T05:55:57;101831.50;;;13.98;100.00
18985;BME280;9626;52.552;13.436;2022-08-06T05:59:01;101823.22;;;14.15;100.00
18985;BME280;9626;52.552;13.436;2022-08-06T06:01:28;101819.66;;;14.16;100.00
18985;BME280;9626;52.552;13.436;2022-08-06T06:03:56;101823.81;;;14.32;100.00
18985;BME280;9626;52.552;13.436;2022-08-06T06:06:23;101831.50;;;14.51;100.00
18985;BME280;9626;52.552;13.436;2022-08-06T06:08:49;101836.53;;;14.68;100.00
18985;BME280;9626;52.552;13.436;2022-08-06T06:11:16;101850.41;;;14.87;100.00
18985;BME280;9626;52.552;13.436;2022-08-06T06:13:44;101846.94;;;14.82;100.00
18985;BME280;9626;52.552;13.436;2022-08-06T06:16:27;101845.03;;;14.88;100.00
18985;BME280;9626;52.552;13.436;2022-08-06T06:19:12;101840.25;;;15.06;100.00
18985;BME280;9626;52.552;13.436;2022-08-06T06:21:56;101849.06;;;15.11;99.00
18985;BME280;9626;52.552;13.436;2022-08-06T06:27:28;101857.53;;;14.86;99.14
18985;BME280;9626;52.552;13.436;2022-08-06T06:30:02;101854.47;;;14.58;100.00
18985;BME280;9626;52.552;13.436;2022-08-06T06:35:15;101859.63;;;14.69;100.00
18985;BME280;9626;52.552;13.436;2022-08-06T06:43:59;101865.63;;;15.27;98.38
18985;BME280;9626;52.552;13.436;2022-08-06T06:46:39;101864.53;;;15.36;96.52
18985;BME280;9626;52.552;13.436;2022-08-06T06:49:12;101877.25;;;15.25;97.03
18985;BME280;9626;52.552;13.436;2022-08-06T06:51:44;101877.00;;;15.37;96.72
18985;BME280;9626;52.552;13.436;2022-08-06T06:54:24;101879.53;;;15.42;95.46
18985;BME280;9626;52.552;13.436;2022-08-06T06:56:54;101880.00;;;15.62;95.27
18985;BME280;9626;52.552;13.436;2022-08-06T06:59:24;101877.63;;;15.91;94.03
18985;BME280;9626;52.552;13.436;2022-08-06T07:01:56;101882.31;;;16.18;91.67
18985;BME280;9626;52.552;13.436;2022-08-06T07:04:25;101877.47;;;16.34;90.94
18985;BME280;9626;52.552;13.436;2022-08-06T07:06:54;101876.81;;;16.61;88.68
18985;BME280;9626;52.552;13.436;2022-08-06T07:09:23;101883.16;;;16.56;87.71
18985;BME280;9626;52.552;13.436;2022-08-06T07:11:50;101889.72;;;16.78;87.22
18985;BME280;9626;52.552;13.436;2022-08-06T07:14:20;101884.00;;;16.93;85.66
18985;BME280;9626;52.552;13.436;2022-08-06T07:16:47;101884.66;;;16.67;86.08
18985;BME280;9626;52.552;13.436;2022-08-06T07:19:16;101891.78;;;16.68;87.48
18985;BME280;9626;52.552;13.436;2022-08-06T07:21:43;101896.22;;;16.69;87.49
18985;BME280;9626;52.552;13.436;2022-08-06T07:24:11;101893.34;;;16.75;87.03
18985;BME280;9626;52.552;13.436;2022-08-06T07:26:44;101900.13;;;16.90;86.27
18985;BME280;9626;52.552;13.436;2022-08-06T07:29:11;101899.50;;;17.13;85.30
18985;BME280;9626;52.552;13.436;2022-08-06T07:31:38;101900.69;;;17.34;83.55
18985;BME280;9626;52.552;13.436;2022-08-06T07:34:06;101913.47;;;17.54;82.87
18985;BME280;9626;52.552;13.436;2022-08-06T07:36:33;101908.59;;;17.39;82.89
18985;BME280;9626;52.552;13.436;2022-08-06T07:39:03;101911.66;;;17.56;82.37
18985;BME280;9626;52.552;13.436;2022-08-06T07:41:29;101901.41;;;17.08;82.48
18985;BME280;9626;52.552;13.436;2022-08-06T07:43:58;101916.81;;;17.00;82.40
18985;BME280;9626;52.552;13.436;2022-08-06T07:46:26;101918.53;;;17.02;83.48
18985;BME280;9626;52.552;13.436;2022-08-06T07:48:55;101921.66;;;17.18;82.58
18985;BME280;9626;52.552;13.436;2022-08-06T07:51:27;101923.44;;;17.19;82.14
18985;BME280;9626;52.552;13.436;2022-08-06T07:53:56;101926.38;;;17.42;80.17
18985;BME280;9626;52.552;13.436;2022-08-06T07:56:22;101922.53;;;17.50;80.55
18985;BME280;9626;52.552;13.436;2022-08-06T07:58:48;101930.28;;;17.60;80.06
18985;BME280;9626;52.552;13.436;2022-08-06T08:01:15;101921.94;;;17.70;79.16
18985;BME280;9626;52.552;13.436;2022-08-06T08:03:42;101928.22;;;17.69;79.06
18985;BME280;9626;52.552;13.436;2022-08-06T08:06:28;101933.63;;;17.68;77.88
18985;BME280;9626;52.552;13.436;2022-08-06T08:09:03;101932.34;;;17.81;78.01
18985;BME280;9626;52.552;13.436;2022-08-06T08:11:30;101932.97;;;17.89;77.09
18985;BME280;9626;52.552;13.436;2022-08-06T08:13:57;101940.38;;;17.81;77.26
18985;BME280;9626;52.552;13.436;2022-08-06T08:16:28;101940.81;;;17.97;75.73
18985;BME280;9626;52.552;13.436;2022-08-06T08:18:54;101942.09;;;18.42;72.83
18985;BME280;9626;52.552;13.436;2022-08-06T08:21:20;101939.88;;;18.82;71.10
18985;BME280;9626;52.552;13.436;2022-08-06T08:23:47;101940.75;;;19.58;65.63
18985;BME280;9626;52.552;13.436;2022-08-06T08:26:13;101937.28;;;19.78;65.00
18985;BME280;9626;52.552;13.436;2022-08-06T08:28:38;101929.56;;;18.69;66.73
18985;BME280;9626;52.552;13.436;2022-08-06T08:31:05;101941.13;;;18.16;69.98
18985;BME280;9626;52.552;13.436;2022-08-06T08:33:32;101935.25;;;18.32;70.81
18985;BME280;9626;52.552;13.436;2022-08-06T08:35:58;101933.47;;;18.59;67.81
18985;BME280;9626;52.552;13.436;2022-08-06T08:38:30;101936.19;;;19.11;62.86
18985;BME280;9626;52.552;13.436;2022-08-06T08:41:00;101943.72;;;19.74;61.66
18985;BME280;9626;52.552;13.436;2022-08-06T08:43:34;101945.00;;;20.11;59.44
18985;BME280;9626;52.552;13.436;2022-08-06T08:46:02;101941.25;;;19.44;58.95
18985;BME280;9626;52.552;13.436;2022-08-06T08:48:29;101953.84;;;19.91;58.08
18985;BME280;9626;52.552;13.436;2022-08-06T08:50:59;101934.97;;;20.81;55.05
18985;BME280;9626;52.552;13.436;2022-08-06T08:53:37;101944.13;;;20.98;54.15
18985;BME280;9626;52.552;13.436;2022-08-06T08:56:05;101940.19;;;20.19;56.83
18985;BME280;9626;52.552;13.436;2022-08-06T08:58:31;101942.53;;;20.05;58.45
18985;BME280;9626;52.552;13.436;2022-08-06T09:01:02;101939.34;;;20.39;57.21
18985;BME280;9626;52.552;13.436;2022-08-06T09:03:30;101939.78;;;20.06;56.19
18985;BME280;9626;52.552;13.436;2022-08-06T09:05:57;101944.16;;;19.38;58.41
18985;BME280;9626;52.552;13.436;2022-08-06T09:08:24;101942.78;;;19.99;56.16
18985;BME280;9626;52.552;13.436;2022-08-06T09:10:50;101943.88;;;20.39;55.25
18985;BME280;9626;52.552;13.436;2022-08-06T09:13:16;101940.38;;;20.59;53.16
18985;BME280;9626;52.552;13.436;2022-08-06T09:15:42;101939.03;;;20.69;51.78
18985;BME280;9626;52.552;13.436;2022-08-06T09:18:08;101925.19;;;20.79;52.47
18985;BME280;9626;52.552;13.436;2022-08-06T09:20:35;101931.59;;;20.76;52.39
18985;BME280;9626;52.552;13.436;2022-08-06T09:23:01;101936.72;;;20.38;51.04
18985;BME280;9626;52.552;13.436;2022-08-06T09:25:49;101943.13;;;19.66;52.98
18985;BME280;9626;52.552;13.436;2022-08-06T09:31:07;101948.84;;;19.56;55.42
18985;BME280;9626;52.552;13.436;2022-08-06T09:33:35;101958.72;;;19.81;55.58
18985;BME280;9626;52.552;13.436;2022-08-06T09:36:12;101953.72;;;19.94;52.96
18985;BME280;9626;52.552;13.436;2022-08-06T09:38:48;101958.41;;;19.89;54.05
18985;BME280;9626;52.552;13.436;2022-08-06T09:41:16;101954.19;;;19.82;54.78
18985;BME280;9626;52.552;13.436;2022-08-06T09:43:46;101962.56;;;19.49;53.42
18985;BME280;9626;52.552;13.436;2022-08-06T09:46:14;101963.06;;;19.09;54.43
18985;BME280;9626;52.552;13.436;2022-08-06T09:49:00;101965.59;;;18.87;55.65
18985;BME280;9626;52.552;13.436;2022-08-06T09:51:27;101951.84;;;18.98;56.06
18985;BME280;9626;52.552;13.436;2022-08-06T09:53:57;101955.69;;;19.41;54.74
18985;BME280;9626;52.552;13.436;2022-08-06T09:56:24;101958.34;;;19.90;52.64
18985;BME280;9626;52.552;13.436;2022-08-06T09:58:50;101958.44;;;20.11;50.16
18985;BME280;9626;52.552;13.436;2022-08-06T10:01:18;101953.22;;;19.84;51.04
18985;BME280;9626;52.552;13.436;2022-08-06T10:03:44;101954.84;;;19.63;51.51
18985;BME280;9626;52.552;13.436;2022-08-06T10:06:13;101958.06;;;19.49;52.07
18985;BME280;9626;52.552;13.436;2022-08-06T10:08:39;101956.47;;;19.69;52.36
18985;BME280;9626;52.552;13.436;2022-08-06T10:11:06;101956.91;;;20.04;49.91
18985;BME280;9626;52.552;13.436;2022-08-06T10:13:32;101959.16;;;20.38;50.32
18985;BME280;9626;52.552;13.436;2022-08-06T10:16:01;101944.84;;;20.58;49.16
18985;BME280;9626;52.552;13.436;2022-08-06T10:18:43;101952.50;;;20.47;49.80
18985;BME280;9626;52.552;13.436;2022-08-06T10:21:11;101959.38;;;20.10;51.61
18985;BME280;9626;52.552;13.436;2022-08-06T10:23:39;101958.34;;;19.90;52.51
18985;BME280;9626;52.552;13.436;2022-08-06T10:26:09;101970.81;;;19.68;54.24
18985;BME280;9626;52.552;13.436;2022-08-06T10:28:38;101961.13;;;19.64;54.16
18985;BME280;9626;52.552;13.436;2022-08-06T10:31:06;101966.38;;;19.67;54.11
18985;BME280;9626;52.552;13.436;2022-08-06T10:36:27;101964.75;;;20.32;50.88
18985;BME280;9626;52.552;13.436;2022-08-06T10:38:54;101964.88;;;20.51;46.51
18985;BME280;9626;52.552;13.436;2022-08-06T10:41:21;101957.50;;;20.56;46.92
18985;BME280;9626;52.552;13.436;2022-08-06T10:43:48;101956.56;;;20.57;46.81
18985;BME280;9626;52.552;13.436;2022-08-06T10:46:14;101956.59;;;20.56;47.23
18985;BME280;9626;52.552;13.436;2022-08-06T10:48:43;101963.25;;;20.47;46.59
18985;BME280;9626;52.552;13.436;2022-08-06T10:51:11;101963.34;;;20.00;47.11
18985;BME280;9626;52.552;13.436;2022-08-06T10:53:39;101965.41;;;19.44;49.00
18985;BME280;9626;52.552;13.436;2022-08-06T10:56:06;101968.25;;;19.65;47.99
18985;BME280;9626;52.552;13.436;2022-08-06T10:58:34;101961.97;;;19.89;45.85
18985;BME280;9626;52.552;13.436;2022-08-06T11:01:05;101964.75;;;20.10;46.08
18985;BME280;9626;52.552;13.436;2022-08-06T11:12:02;101945.25;;;20.49;46.15
18985;BME280;9626;52.552;13.436;2022-08-06T11:14:33;101955.44;;;20.41;45.22
18985;BME280;9626;52.552;13.436;2022-08-06T11:17:00;101946.81;;;20.33;45.07
18985;BME280;9626;52.552;13.436;2022-08-06T11:19:45;101949.13;;;20.42;45.13
18985;BME280;9626;52.552;13.436;2022-08-06T11:22:33;101949.50;;;20.33;45.02
18985;BME280;9626;52.552;13.436;2022-08-06T11:25:00;101944.56;;;20.44;44.73
18985;BME280;9626;52.552;13.436;2022-08-06T11:30:13;101945.13;;;20.52;43.71
18985;BME280;9626;52.552;13.436;2022-08-06T11:32:47;101933.56;;;20.72;43.99
18985;BME280;9626;52.552;13.436;2022-08-06T11:35:38;101927.81;;;21.01;43.80
18985;BME280;9626;52.552;13.436;2022-08-06T11:38:07;101945.16;;;21.35;43.59
18985;BME280;9626;52.552;13.436;2022-08-06T11:41:52;101934.94;;;21.22;42.31
18985;BME280;9626;52.552;13.436;2022-08-06T11:46:29;101932.25;;;21.22;43.47
18985;BME280;9626;52.552;13.436;2022-08-06T11:59:31;101936.97;;;21.58;41.65
18985;BME280;9626;52.552;13.436;2022-08-06T12:01:57;101930.56;;;21.61;41.50
18985;BME280;9626;52.552;13.436;2022-08-06T12:07:21;101936.53;;;21.47;42.37
18985;BME280;9626;52.552;13.436;2022-08-06T12:15:02;101931.19;;;21.85;38.33
18985;BME280;9626;52.552;13.436;2022-08-06T12:17:30;101931.19;;;21.66;38.28
18985;BME280;9626;52.552;13.436;2022-08-06T12:19:58;101935.75;;;21.45;39.85
18985;BME280;9626;52.552;13.436;2022-08-06T12:22:26;101934.97;;;21.02;40.78
18985;BME280;9626;52.552;13.436;2022-08-06T12:24:54;101926.97;;;20.80;41.95
18985;BME280;9626;52.552;13.436;2022-08-06T12:27:21;101930.94;;;20.91;41.87
18985;BME280;9626;52.552;13.436;2022-08-06T12:29:54;101932.06;;;21.27;41.29
18985;BME280;9626;52.552;13.436;2022-08-06T12:32:34;101930.19;;;21.48;40.31
18985;BME280;9626;52.552;13.436;2022-08-06T12:35:03;101925.97;;;21.82;39.60
18985;BME280;9626;52.552;13.436;2022-08-06T12:37:38;101929.81;;;21.95;37.18
18985;BME280;9626;52.552;13.436;2022-08-06T12:40:10;101923.03;;;21.68;37.76
18985;BME280;9626;52.552;13.436;2022-08-06T12:45:28;101929.56;;;22.19;38.74
18985;BME280;9626;52.552;13.436;2022-08-06T12:48:04;101925.31;;;22.33;38.80
18985;BME280;9626;52.552;13.436;2022-08-06T12:50:33;101926.41;;;22.48;38.42
18985;BME280;9626;52.552;13.436;2022-08-06T12:53:16;101917.19;;;22.52;37.77
18985;BME280;9626;52.552;13.436;2022-08-06T12:55:55;101921.38;;;22.40;36.66
18985;BME280;9626;52.552;13.436;2022-08-06T12:58:30;101919.78;;;22.17;37.19
18985;BME280;9626;52.552;13.436;2022-08-06T13:00:57;101916.34;;;21.95;37.72
18985;BME280;9626;52.552;13.436;2022-08-06T13:03:24;101931.13;;;21.87;38.16
18985;BME280;9626;52.552;13.436;2022-08-06T13:05:54;101932.16;;;21.84;37.89
18985;BME280;9626;52.552;13.436;2022-08-06T13:08:21;101929.81;;;21.76;38.71
18985;BME280;9626;52.552;13.436;2022-08-06T13:10:51;101929.22;;;21.70;38.87
18985;BME280;9626;52.552;13.436;2022-08-06T13:13:17;101934.31;;;21.76;38.76
18985;BME280;9626;52.552;13.436;2022-08-06T13:15:58;101932.44;;;21.78;39.02
18985;BME280;9626;52.552;13.436;2022-08-06T13:18:24;101924.59;;;21.92;37.42
18985;BME280;9626;52.552;13.436;2022-08-06T13:20:50;101924.28;;;21.99;37.67
18985;BME280;9626;52.552;13.436;2022-08-06T13:23:37;101917.00;;;22.01;37.33
18985;BME280;9626;52.552;13.436;2022-08-06T13:28:37;101914.47;;;22.34;35.83
18985;BME280;9626;52.552;13.436;2022-08-06T13:31:16;101916.03;;;22.02;36.63
18985;BME280;9626;52.552;13.436;2022-08-06T13:33:42;101915.59;;;21.73;37.77
18985;BME280;9626;52.552;13.436;2022-08-06T13:36:08;101911.47;;;21.66;38.37
18985;BME280;9626;52.552;13.436;2022-08-06T13:38:36;101916.03;;;21.64;38.37
18985;BME280;9626;52.552;13.436;2022-08-06T13:41:03;101915.25;;;21.61;38.62
18985;BME280;9626;52.552;13.436;2022-08-06T13:43:43;101911.63;;;21.63;39.06
18985;BME280;9626;52.552;13.436;2022-08-06T13:46:14;101914.81;;;21.71;38.41
18985;BME280;9626;52.552;13.436;2022-08-06T13:48:56;101915.41;;;21.97;38.16
18985;BME280;9626;52.552;13.436;2022-08-06T13:51:22;101905.59;;;22.13;38.32
18985;BME280;9626;52.552;13.436;2022-08-06T13:53:49;101915.47;;;22.32;37.77
18985;BME280;9626;52.552;13.436;2022-08-06T13:56:15;101909.34;;;22.47;36.69
18985;BME280;9626;52.552;13.436;2022-08-06T13:58:42;101907.91;;;22.40;36.12
18985;BME280;9626;52.552;13.436;2022-08-06T14:01:12;101913.16;;;22.43;36.34
18985;BME280;9626;52.552;13.436;2022-08-06T14:03:38;101917.44;;;22.47;36.78